Time;durP1;ratioP1;P1;durP2;ratioP2;P2;SDS_P1;SDS_P2;PMS_P1;PMS_P2;Temp;Humidity;BMP_temperature;BMP_pressure;BME280_temperature;BME280_humidity;BME280_pressure;Samples;Min_cycle;Max_cycle;Signal;HPM_P1;HPM_P2
2022/10/10 00:02:00;;;;;;;;;;;;;;;;;;5029831;28;19913;-57
2022/10/10 00:04:25;;;;;;;;;;;;;;;;;;5030254;28;19912;-57
2022/10/10 00:06:50;;;;;;;;;;;;;;;;;;5034029;28;19912;-57
2022/10/10 00:09:16;;;;;;;;;;;;;;;;;;5030529;28;19920;-58
2022/10/10 00:11:41;;;;;;;;;;;;;;;;;;5029522;28;19920;-57
2022/10/10 00:14:06;;;;;;;;;;;;;;;;;;5030487;28;19923;-57
2022/10/10 00:16:31;;;;;;;;;;;;;;;;;;5029859;28;20345;-58
2022/10/10 00:18:57;;;;;;;;;;;;;;;;;;5028886;28;20276;-58
2022/10/10 00:21:22;;;;;;;;;;;;;;;;;;5029765;28;19955;-58
2022/10/10 00:23:47;;;;;;;;;;;;;;;;;;5031996;28;19913;-57
2022/10/10 00:26:12;;;;;;;;;;;;;;;;;;5031729;28;19913;-57
2022/10/10 00:28:38;;;;;;;;;;;;;;;;;;5032277;28;19963;-58
2022/10/10 00:31:04;;;;;;;;;;;;;;;;;;5030010;28;19912;-58
2022/10/10 00:33:29;;;;;;;;;;;;;;;;;;5031418;28;20007;-57
2022/10/10 00:35:55;;;;;;;;;;;;;;;;;;5029375;28;20016;-58
2022/10/10 00:38:20;;;;;;;;;;;;;;;;;;5030148;28;19917;-58
2022/10/10 00:40:49;;;;;;;;;;;;;;;;;;5029739;28;19913;-58
2022/10/10 00:43:15;;;;;;;;;;;;;;;;;;5029230;28;19913;-57
2022/10/10 00:45:42;;;;;;;;;;;;;;;;;;5027872;28;19916;-58
2022/10/10 00:48:19;;;;;;;;;;;;;;;;;;5028574;28;20003;-57
2022/10/10 00:50:47;;;;;;;;;;;;;;;;;;5031622;28;20378;-58
2022/10/10 00:53:13;;;;;;;;;;;;;;;;;;5029059;28;20280;-58
2022/10/10 00:55:39;;;;;;;;;;;;;;;;;;5030851;28;19980;-58
2022/10/10 00:58:05;;;;;;;;;;;;;;;;;;5029626;28;20399;-58
2022/10/10 01:00:30;;;;;;;;;;;;;;;;;;5035019;28;19928;-58
2022/10/10 01:02:56;;;;;;;;;;;;;;;;;;5028751;28;19913;-57
2022/10/10 01:05:21;;;;;;;;;;;;;;;;;;5031996;28;19924;-57
2022/10/10 01:07:46;;;;;;;;;;;;;;;;;;5029312;28;19916;-58
2022/10/10 01:10:13;;;;;;;;;;;;;;;;;;5029675;28;19938;-57
2022/10/10 01:12:57;;;;;;;;;;;;;;;;;;5028948;28;19919;-58
2022/10/10 01:15:38;;;;;;;;;;;;;;;;;;5028291;28;19913;-57
2022/10/10 01:18:06;;;;;;;;;;;;;;;;;;5026197;28;19921;-57
2022/10/10 01:20:46;;;;;;;;;;;;;;;;;;5029797;28;19909;-57
2022/10/10 01:23:22;;;;;;;;;;;;;;;;;;5028353;28;19912;-58
2022/10/10 01:25:57;;;;;;;;;;;;;;;;;;5028517;28;19913;-57
2022/10/10 01:28:22;;;;;;;;;;;;;;;;;;5026794;28;20011;-57
2022/10/10 01:30:47;;;;;;;;;;;;;;;;;;5031529;28;19998;-58
2022/10/10 01:33:20;;;;;;;;;;;;;;;;;;5028387;28;19913;-57
2022/10/10 01:35:50;;;;;;;;;;;;;;;;;;5029932;28;19924;-58
2022/10/10 01:38:18;;;;;;;;;;;;;;;;;;5029646;28;19913;-58
2022/10/10 01:40:49;;;;;;;;;;;;;;;;;;5028854;28;19913;-57
2022/10/10 01:43:15;;;;;;;;;;;;;;;;;;5028553;28;19913;-57
2022/10/10 01:45:45;;;;;;;;;;;;;;;;;;5028394;28;20285;-58
2022/10/10 01:48:10;;;;;;;;;;;;;;;;;;5028927;28;19949;-58
2022/10/10 01:50:45;;;;;;;;;;;;;;;;;;5027094;28;20339;-57
2022/10/10 01:53:22;;;;;;;;;;;;;;;;;;5028615;28;20063;-57
2022/10/10 01:55:47;;;;;;;;;;;;;;;;;;5028024;28;20007;-58
2022/10/10 01:58:24;;;;;;;;;;;;;;;;;;5029238;28;20406;-57
2022/10/10 02:00:52;;;;;;;;;;;;;;;;;;5027980;28;20003;-58
2022/10/10 02:03:28;;;;;;;;;;;;;;;;;;5028580;28;19913;-57
2022/10/10 02:06:01;;;;;;;;;;;;;;;;;;5029015;28;20007;-58
2022/10/10 02:08:38;;;;;;;;;;;;;;;;;;5029462;28;19983;-57
2022/10/10 02:11:05;;;;;;;;;;;;;;;;;;5026745;28;19909;-57
2022/10/10 02:13:39;;;;;;;;;;;;;;;;;;5032266;28;19956;-58
2022/10/10 02:16:07;;;;;;;;;;;;;;;;;;5064337;28;20341;-57
2022/10/10 02:18:34;;;;;;;;;;;;;;;;;;5032634;28;19920;-58
2022/10/10 02:21:01;;;;;;;;;;;;;;;;;;5029130;28;20156;-57
2022/10/10 02:23:26;;;;;;;;;;;;;;;;;;5031936;28;20302;-58
2022/10/10 02:25:54;;;;;;;;;;;;;;;;;;5036278;28;19916;-58
2022/10/10 02:28:22;;;;;;;;;;;;;;;;;;5032737;28;19992;-58
2022/10/10 02:30:49;;;;;;;;;;;;;;;;;;5031860;28;19912;-58
2022/10/10 02:33:16;;;;;;;;;;;;;;;;;;5027197;28;19909;-58
2022/10/10 02:35:43;;;;;;;;;;;;;;;;;;5031027;28;19987;-58
2022/10/10 02:38:10;;;;;;;;;;;;;;;;;;5030732;28;19924;-57
2022/10/10 02:40:36;;;;;;;;;;;;;;;;;;5032083;28;20287;-57
2022/10/10 02:43:03;;;;;;;;;;;;;;;;;;5031268;28;19917;-58
2022/10/10 02:45:29;;;;;;;;;;;;;;;;;;5031930;28;19916;-58
2022/10/10 02:47:55;;;;;;;;;;;;;;;;;;5032108;28;19963;-58
2022/10/10 02:50:20;;;;;;;;;;;;;;;;;;5032084;28;20349;-58
2022/10/10 02:52:45;;;;;;;;;;;;;;;;;;5031066;28;20297;-58
2022/10/10 02:55:11;;;;;;;;;;;;;;;;;;5031000;28;19970;-57
2022/10/10 02:57:36;;;;;;;;;;;;;;;;;;5032806;28;19909;-57
2022/10/10 03:00:02;;;;;;;;;;;;;;;;;;5032095;28;19966;-57
2022/10/10 03:02:27;;;;;;;;;;;;;;;;;;5031058;28;19963;-58
2022/10/10 03:04:53;;;;;;;;;;;;;;;;;;5031537;28;19924;-57
2022/10/10 03:07:18;;;;;;;;;;;;;;;;;;5036729;28;20410;-57
2022/10/10 03:09:43;;;;;;;;;;;;;;;;;;5031787;28;20083;-57
2022/10/10 03:12:09;;;;;;;;;;;;;;;;;;5031120;28;19998;-56
2022/10/10 03:14:34;;;;;;;;;;;;;;;;;;5031673;28;19909;-57
2022/10/10 03:16:59;;;;;;;;;;;;;;;;;;5030830;28;19975;-57
2022/10/10 03:19:25;;;;;;;;;;;;;;;;;;5031672;28;19913;-57
2022/10/10 03:21:50;;;;;;;;;;;;;;;;;;5029800;28;19920;-57
2022/10/10 03:24:15;;;;;;;;;;;;;;;;;;5033447;28;19909;-58
2022/10/10 03:26:40;;;;;;;;;;;;;;;;;;5033243;28;19909;-57
2022/10/10 03:29:06;;;;;;;;;;;;;;;;;;5031560;28;20374;-58
2022/10/10 03:31:31;;;;;;;;;;;;;;;;;;5031218;28;19913;-57
2022/10/10 03:33:57;;;;;;;;;;;;;;;;;;5031315;28;19960;-57
2022/10/10 03:36:22;;;;;;;;;;;;;;;;;;5030363;28;19952;-57
2022/10/10 03:38:47;;;;;;;;;;;;;;;;;;5031570;28;20361;-58
2022/10/10 03:41:13;;;;;;;;;;;;;;;;;;5031455;28;20373;-57
2022/10/10 03:43:38;;;;;;;;;;;;;;;;;;5030516;28;19967;-57
2022/10/10 03:46:03;;;;;;;;;;;;;;;;;;5030615;28;19913;-58
2022/10/10 03:48:30;;;;;;;;;;;;;;;;;;5030499;28;19956;-57
2022/10/10 03:50:55;;;;;;;;;;;;;;;;;;5030241;28;19920;-57
2022/10/10 03:53:21;;;;;;;;;;;;;;;;;;5026276;28;20340;-57
2022/10/10 03:55:46;;;;;;;;;;;;;;;;;;5030461;28;20336;-57
2022/10/10 03:58:11;;;;;;;;;;;;;;;;;;5030194;28;19916;-57
2022/10/10 04:00:36;;;;;;;;;;;;;;;;;;5028991;28;19913;-56
2022/10/10 04:03:05;;;;;;;;;;;;;;;;;;5029262;28;20522;-57
2022/10/10 04:05:39;;;;;;;;;;;;;;;;;;5028872;28;19919;-58
2022/10/10 04:08:05;;;;;;;;;;;;;;;;;;5029869;28;19916;-56
2022/10/10 04:10:30;;;;;;;;;;;;;;;;;;5030733;28;19909;-57
2022/10/10 04:12:55;;;;;;;;;;;;;;;;;;5029831;28;19999;-57
2022/10/10 04:15:21;;;;;;;;;;;;;;;;;;5030188;28;19913;-57
2022/10/10 04:17:46;;;;;;;;;;;;;;;;;;5029755;28;19909;-58
2022/10/10 04:20:11;;;;;;;;;;;;;;;;;;5030117;28;19948;-57
2022/10/10 04:22:36;;;;;;;;;;;;;;;;;;5031941;28;19920;-57
2022/10/10 04:25:02;;;;;;;;;;;;;;;;;;5032535;28;19913;-57
2022/10/10 04:27:27;;;;;;;;;;;;;;;;;;5030318;28;19909;-58
2022/10/10 04:29:52;;;;;;;;;;;;;;;;;;5030530;28;19909;-57
2022/10/10 04:32:17;;;;;;;;;;;;;;;;;;5028800;28;19919;-57
2022/10/10 04:34:43;;;;;;;;;;;;;;;;;;5029416;28;19916;-57
2022/10/10 04:37:08;;;;;;;;;;;;;;;;;;5030180;28;19917;-57
2022/10/10 04:39:33;;;;;;;;;;;;;;;;;;5030199;28;20382;-57
2022/10/10 04:41:58;;;;;;;;;;;;;;;;;;5029310;28;19920;-59
2022/10/10 04:44:24;;;;;;;;;;;;;;;;;;5032370;28;19909;-59
2022/10/10 04:46:49;;;;;;;;;;;;;;;;;;5029657;28;20402;-59
2022/10/10 04:49:14;;;;;;;;;;;;;;;;;;5030024;28;19913;-59
2022/10/10 04:51:40;;;;;;;;;;;;;;;;;;5026691;28;19920;-59
2022/10/10 04:54:05;;;;;;;;;;;;;;;;;;5030091;28;19916;-59
2022/10/10 04:56:30;;;;;;;;;;;;;;;;;;5029662;28;19915;-60
2022/10/10 04:58:55;;;;;;;;;;;;;;;;;;5029894;28;20170;-59
2022/10/10 05:01:21;;;;;;;;;;;;;;;;;;5028514;28;19916;-59
2022/10/10 05:03:46;;;;;;;;;;;;;;;;;;5029544;28;19919;-59
2022/10/10 05:06:11;;;;;;;;;;;;;;;;;;5026725;28;19917;-59
2022/10/10 05:08:37;;;;;;;;;;;;;;;;;;5027787;28;19913;-59
2022/10/10 05:11:02;;;;;;;;;;;;;;;;;;5029762;28;20255;-60
2022/10/10 05:13:27;;;;;;;;;;;;;;;;;;5024065;28;19917;-56
2022/10/10 05:15:52;;;;;;;;;;;;;;;;;;5025478;28;22115;-57
2022/10/10 05:18:18;;;;;;;;;;;;;;;;;;5030245;28;19947;-59
2022/10/10 05:20:46;;;;;;;;;;;;;;;;;;5028798;28;20398;-60
2022/10/10 05:23:11;;;;;;;;;;;;;;;;;;5029579;28;19917;-60
2022/10/10 05:25:37;;;;;;;;;;;;;;;;;;5031392;28;20011;-59
2022/10/10 05:28:02;;;;;;;;;;;;;;;;;;5032450;28;19913;-60
2022/10/10 05:30:27;;;;;;;;;;;;;;;;;;5026700;28;20382;-59
2022/10/10 05:32:53;;;;;;;;;;;;;;;;;;5026662;28;19920;-59
2022/10/10 05:35:18;;;;;;;;;;;;;;;;;;5025999;28;19913;-59
2022/10/10 05:37:43;;;;;;;;;;;;;;;;;;5027881;28;19913;-59
2022/10/10 05:40:09;;;;;;;;;;;;;;;;;;5027737;28;20417;-59
2022/10/10 05:42:34;;;;;;;;;;;;;;;;;;5027286;28;19920;-59
2022/10/10 05:44:59;;;;;;;;;;;;;;;;;;5028280;28;20272;-59
2022/10/10 05:47:25;;;;;;;;;;;;;;;;;;5033503;28;19960;-59
2022/10/10 05:49:50;;;;;;;;;;;;;;;;;;5032318;28;19916;-59
2022/10/10 05:52:15;;;;;;;;;;;;;;;;;;5031037;28;19963;-59
2022/10/10 05:54:40;;;;;;;;;;;;;;;;;;5033369;28;20371;-59
2022/10/10 05:57:06;;;;;;;;;;;;;;;;;;5031848;28;19912;-59
2022/10/10 05:59:31;;;;;;;;;;;;;;;;;;5033085;28;19928;-59
2022/10/10 06:01:56;;;;;;;;;;;;;;;;;;5031018;28;19913;-58
2022/10/10 06:04:22;;;;;;;;;;;;;;;;;;5030714;28;19919;-59
2022/10/10 06:06:47;;;;;;;;;;;;;;;;;;5030028;28;19924;-59
2022/10/10 06:09:13;;;;;;;;;;;;;;;;;;5029887;28;20379;-59
2022/10/10 06:11:38;;;;;;;;;;;;;;;;;;5030764;28;19921;-59
2022/10/10 06:14:04;;;;;;;;;;;;;;;;;;5031294;28;19940;-58
2022/10/10 06:16:29;;;;;;;;;;;;;;;;;;5032499;28;19920;-60
2022/10/10 06:18:57;;;;;;;;;;;;;;;;;;5032136;28;19968;-59
2022/10/10 06:21:23;;;;;;;;;;;;;;;;;;5028847;28;20078;-59
2022/10/10 06:23:49;;;;;;;;;;;;;;;;;;5029297;28;19921;-59
2022/10/10 06:26:14;;;;;;;;;;;;;;;;;;5028841;28;20019;-60
2022/10/10 06:28:40;;;;;;;;;;;;;;;;;;5029850;28;19959;-59
2022/10/10 06:31:07;;;;;;;;;;;;;;;;;;5029403;28;19913;-59
2022/10/10 06:33:32;;;;;;;;;;;;;;;;;;5029692;28;19913;-60
2022/10/10 06:35:58;;;;;;;;;;;;;;;;;;5029812;28;19913;-60
2022/10/10 06:38:23;;;;;;;;;;;;;;;;;;5030539;28;19917;-60
2022/10/10 06:40:48;;;;;;;;;;;;;;;;;;5030026;28;20232;-60
2022/10/10 06:43:14;;;;;;;;;;;;;;;;;;5031393;28;19909;-60
2022/10/10 06:45:44;;;;;;;;;;;;;;;;;;5030953;28;20099;-60
2022/10/10 06:48:09;;;;;;;;;;;;;;;;;;5032004;28;20011;-60
2022/10/10 06:50:35;;;;;;;;;;;;;;;;;;5031102;28;20036;-58
2022/10/10 06:53:00;;;;;;;;;;;;;;;;;;5030524;28;20018;-59
2022/10/10 06:55:25;;;;;;;;;;;;;;;;;;5028660;28;19946;-60
2022/10/10 06:57:51;;;;;;;;;;;;;;;;;;5030365;28;19912;-59
2022/10/10 07:00:16;;;;;;;;;;;;;;;;;;5028204;28;19921;-60
2022/10/10 07:02:42;;;;;;;;;;;;;;;;;;5028500;28;19999;-60
2022/10/10 07:05:10;;;;;;;;;;;;;;;;;;5033850;28;19913;-60
2022/10/10 07:07:36;;;;;;;;;;;;;;;;;;5030144;28;19917;-60
2022/10/10 07:10:01;;;;;;;;;;;;;;;;;;5030641;28;19920;-60
2022/10/10 07:12:26;;;;;;;;;;;;;;;;;;5029391;28;19913;-60
2022/10/10 07:14:51;;;;;;;;;;;;;;;;;;5029087;28;20371;-60
2022/10/10 07:17:17;;;;;;;;;;;;;;;;;;5030794;28;20338;-59
2022/10/10 07:19:42;;;;;;;;;;;;;;;;;;5029287;28;19924;-59
2022/10/10 07:22:07;;;;;;;;;;;;;;;;;;5028332;28;19916;-60
2022/10/10 07:24:33;;;;;;;;;;;;;;;;;;5034195;28;19913;-60
2022/10/10 07:26:58;;;;;;;;;;;;;;;;;;5028857;28;19912;-60
2022/10/10 07:29:23;;;;;;;;;;;;;;;;;;5032951;28;20453;-60
2022/10/10 07:31:49;;;;;;;;;;;;;;;;;;5028093;28;19962;-60
2022/10/10 07:34:14;;;;;;;;;;;;;;;;;;5029128;28;19966;-60
2022/10/10 07:36:39;;;;;;;;;;;;;;;;;;5026489;28;19962;-60
2022/10/10 07:39:05;;;;;;;;;;;;;;;;;;5029764;28;19917;-61
2022/10/10 07:41:30;;;;;;;;;;;;;;;;;;5029270;28;20172;-61
2022/10/10 07:43:55;;;;;;;;;;;;;;;;;;5030131;28;19913;-60
2022/10/10 07:46:21;;;;;;;;;;;;;;;;;;5028619;28;20383;-59
2022/10/10 07:48:47;;;;;;;;;;;;;;;;;;5028954;28;19913;-59
2022/10/10 07:51:12;;;;;;;;;;;;;;;;;;5030243;28;20264;-61
2022/10/10 07:53:39;;;;;;;;;;;;;;;;;;5028873;28;19979;-60
2022/10/10 07:56:05;;;;;;;;;;;;;;;;;;5029043;28;19913;-61
2022/10/10 07:58:31;;;;;;;;;;;;;;;;;;5029265;28;19971;-61
2022/10/10 08:01:00;;;;;;;;;;;;;;;;;;5028811;28;20387;-62
2022/10/10 08:03:26;;;;;;;;;;;;;;;;;;5027581;28;19920;-61
2022/10/10 08:05:51;;;;;;;;;;;;;;;;;;5029406;28;19912;-61
2022/10/10 08:08:16;;;;;;;;;;;;;;;;;;5028702;28;19935;-62
2022/10/10 08:10:43;;;;;;;;;;;;;;;;;;5030209;28;19913;-62
2022/10/10 08:13:08;;;;;;;;;;;;;;;;;;5028020;28;19921;-61
2022/10/10 08:15:33;;;;;;;;;;;;;;;;;;5028089;28;19919;-61
2022/10/10 08:17:59;;;;;;;;;;;;;;;;;;5028153;28;20382;-62
2022/10/10 08:20:24;;;;;;;;;;;;;;;;;;5029166;28;19917;-62
2022/10/10 08:22:49;;;;;;;;;;;;;;;;;;5027577;28;19913;-61
2022/10/10 08:25:14;;;;;;;;;;;;;;;;;;5028207;28;20002;-61
2022/10/10 08:27:40;;;;;;;;;;;;;;;;;;5027727;28;19921;-61
2022/10/10 08:30:05;;;;;;;;;;;;;;;;;;5027452;28;20012;-60
2022/10/10 08:32:31;;;;;;;;;;;;;;;;;;5028457;28;19948;-60
2022/10/10 08:34:56;;;;;;;;;;;;;;;;;;5032724;28;19921;-60
2022/10/10 08:37:21;;;;;;;;;;;;;;;;;;5028993;28;19913;-61
2022/10/10 08:39:47;;;;;;;;;;;;;;;;;;5029432;28;19925;-61
2022/10/10 08:42:18;;;;;;;;;;;;;;;;;;5028162;28;19919;-61
2022/10/10 08:44:47;;;;;;;;;;;;;;;;;;5027834;28;20497;-60
2022/10/10 08:47:15;;;;;;;;;;;;;;;;;;5030648;28;19916;-61
2022/10/10 08:49:48;;;;;;;;;;;;;;;;;;5029416;28;19917;-60
2022/10/10 08:52:14;;;;;;;;;;;;;;;;;;5026362;28;19921;-61
2022/10/10 08:54:40;;;;;;;;;;;;;;;;;;5029218;28;19970;-60
2022/10/10 08:57:22;;;;;;;;;;;;;;;;;;5028330;28;20104;-60
2022/10/10 08:59:47;;;;;;;;;;;;;;;;;;5027730;28;20336;-60
2022/10/10 09:02:15;;;;;;;;;;;;;;;;;;5027382;28;20005;-61
2022/10/10 09:04:41;;;;;;;;;;;;;;;;;;5029036;28;19957;-60
2022/10/10 09:07:29;;;;;;;;;;;;;;;;;;5027661;28;19921;-60
2022/10/10 09:10:10;;;;;;;;;;;;;;;;;;5027836;28;19944;-60
2022/10/10 09:12:47;;;;;;;;;;;;;;;;;;5024868;28;20397;-60
2022/10/10 09:15:28;;;;;;;;;;;;;;;;;;5027262;28;19913;-59
2022/10/10 09:17:53;;;;;;;;;;;;;;;;;;5031218;28;21062;-60
2022/10/10 09:20:22;;;;;;;;;;;;;;;;;;5030940;28;19956;-60
2022/10/10 09:22:52;;;;;;;;;;;;;;;;;;5031854;28;20482;-61
2022/10/10 09:25:21;;;;;;;;;;;;;;;;;;5032062;28;19921;-60
2022/10/10 09:27:52;;;;;;;;;;;;;;;;;;5033689;28;19913;-60
2022/10/10 09:30:18;;;;;;;;;;;;;;;;;;5032470;28;19917;-62
2022/10/10 09:32:47;;;;;;;;;;;;;;;;;;5030351;28;19971;-61
2022/10/10 09:35:23;;;;;;;;;;;;;;;;;;5032257;28;19921;-61
2022/10/10 09:37:52;;;;;;;;;;;;;;;;;;5032305;28;19936;-62
2022/10/10 09:40:21;;;;;;;;;;;;;;;;;;5031187;28;19950;-62
2022/10/10 09:42:46;;;;;;;;;;;;;;;;;;5031296;28;19967;-62
2022/10/10 09:45:14;;;;;;;;;;;;;;;;;;5029458;28;20323;-62
2022/10/10 09:47:40;;;;;;;;;;;;;;;;;;5030260;28;19924;-62
2022/10/10 09:50:05;;;;;;;;;;;;;;;;;;5029201;28;19916;-62
2022/10/10 09:52:31;;;;;;;;;;;;;;;;;;5030499;28;19913;-61
2022/10/10 09:54:59;;;;;;;;;;;;;;;;;;5031066;28;19921;-62
2022/10/10 09:57:27;;;;;;;;;;;;;;;;;;5031792;28;19930;-63
2022/10/10 09:59:53;;;;;;;;;;;;;;;;;;5031785;28;19916;-62
2022/10/10 10:02:25;;;;;;;;;;;;;;;;;;5032483;28;19944;-63
2022/10/10 10:04:53;;;;;;;;;;;;;;;;;;5031645;28;20275;-62
2022/10/10 10:07:21;;;;;;;;;;;;;;;;;;5030868;28;20337;-62
2022/10/10 10:09:48;;;;;;;;;;;;;;;;;;5031180;28;19947;-61
2022/10/10 10:12:14;;;;;;;;;;;;;;;;;;5032861;28;19999;-62
2022/10/10 10:14:39;;;;;;;;;;;;;;;;;;5030383;28;20449;-61
2022/10/10 10:17:09;;;;;;;;;;;;;;;;;;5030637;28;19921;-61
2022/10/10 10:19:39;;;;;;;;;;;;;;;;;;5030956;28;19913;-60
2022/10/10 10:22:16;;;;;;;;;;;;;;;;;;5029538;28;19917;-61
2022/10/10 10:24:41;;;;;;;;;;;;;;;;;;5029838;28;19913;-61
2022/10/10 10:27:07;;;;;;;;;;;;;;;;;;5030621;28;19909;-60
2022/10/10 10:29:33;;;;;;;;;;;;;;;;;;5030744;28;20183;-61
2022/10/10 10:32:04;;;;;;;;;;;;;;;;;;5029591;28;20363;-61
2022/10/10 10:34:30;;;;;;;;;;;;;;;;;;5031637;28;20459;-61
2022/10/10 10:37:15;;;;;;;;;;;;;;;;;;5029417;28;19992;-60
2022/10/10 10:39:59;;;;;;;;;;;;;;;;;;5030125;28;19921;-60
2022/10/10 10:42:24;;;;;;;;;;;;;;;;;;5028494;28;19915;-59
2022/10/10 10:44:58;;;;;;;;;;;;;;;;;;5030658;28;19913;-60
2022/10/10 10:47:53;;;;;;;;;;;;;;;;;;5031507;28;19912;-60
2022/10/10 10:50:36;;;;;;;;;;;;;;;;;;5009496;28;19929;-61
2022/10/10 10:53:20;;;;;;;;;;;;;;;;;;5027784;28;19928;-61
2022/10/10 10:55:54;;;;;;;;;;;;;;;;;;5029122;28;20335;-62
2022/10/10 10:58:21;;;;;;;;;;;;;;;;;;5029739;28;19972;-61
2022/10/10 11:00:55;;;;;;;;;;;;;;;;;;5029979;28;19924;-60
2022/10/10 11:03:23;;;;;;;;;;;;;;;;;;5028574;28;20021;-61
2022/10/10 11:06:02;;;;;;;;;;;;;;;;;;5029644;28;20078;-61
2022/10/10 11:08:43;;;;;;;;;;;;;;;;;;5032306;28;19913;-60
2022/10/10 11:11:20;;;;;;;;;;;;;;;;;;5030974;28;19944;-60
2022/10/10 11:14:04;;;;;;;;;;;;;;;;;;5028048;28;20363;-60
2022/10/10 11:16:33;;;;;;;;;;;;;;;;;;5032105;28;19913;-60
2022/10/10 11:19:11;;;;;;;;;;;;;;;;;;5030758;28;19952;-60
2022/10/10 11:21:42;;;;;;;;;;;;;;;;;;5027000;28;20369;-60
2022/10/10 11:24:26;;;;;;;;;;;;;;;;;;5029471;28;19916;-60
2022/10/10 11:26:54;;;;;;;;;;;;;;;;;;5030841;28;19975;-60
2022/10/10 11:29:24;;;;;;;;;;;;;;;;;;5033359;28;20015;-61
2022/10/10 11:31:49;;;;;;;;;;;;;;;;;;5030334;28;19917;-60
2022/10/10 11:34:19;;;;;;;;;;;;;;;;;;5027664;28;20283;-60
2022/10/10 11:36:44;;;;;;;;;;;;;;;;;;5028819;28;19921;-60
2022/10/10 11:39:19;;;;;;;;;;;;;;;;;;5029962;28;19932;-60
2022/10/10 11:41:46;;;;;;;;;;;;;;;;;;5028225;28;20378;-60
2022/10/10 11:44:11;;;;;;;;;;;;;;;;;;5028246;28;20413;-60
2022/10/10 11:46:55;;;;;;;;;;;;;;;;;;5029741;28;19917;-60
2022/10/10 11:49:27;;;;;;;;;;;;;;;;;;5026339;28;20443;-61
2022/10/10 11:51:55;;;;;;;;;;;;;;;;;;5028787;28;19999;-60
2022/10/10 11:54:30;;;;;;;;;;;;;;;;;;5029204;28;19920;-60
2022/10/10 11:57:00;;;;;;;;;;;;;;;;;;5028327;28;19913;-60
2022/10/10 11:59:41;;;;;;;;;;;;;;;;;;5028746;28;19925;-60
2022/10/10 12:02:17;;;;;;;;;;;;;;;;;;5025209;28;20294;-60
2022/10/10 12:04:50;;;;;;;;;;;;;;;;;;4985565;28;19971;-59
2022/10/10 12:07:21;;;;;;;;;;;;;;;;;;4997181;28;20389;-59
2022/10/10 12:09:51;;;;;;;;;;;;;;;;;;4989182;28;19918;-59
2022/10/10 12:12:43;;;;;;;;;;;;;;;;;;5008445;28;19962;-59
2022/10/10 12:15:09;;;;;;;;;;;;;;;;;;4968669;28;19918;-60
2022/10/10 12:17:42;;;;;;;;;;;;;;;;;;4974573;28;20408;-60
2022/10/10 12:20:09;;;;;;;;;;;;;;;;;;4971108;28;19922;-60
2022/10/10 12:22:34;;;;;;;;;;;;;;;;;;4971300;28;19924;-60
2022/10/10 12:25:06;;;;;;;;;;;;;;;;;;4974865;28;19918;-60
2022/10/10 12:27:57;;;;;;;;;;;;;;;;;;4986223;28;20307;-60
2022/10/10 12:30:26;;;;;;;;;;;;;;;;;;4983284;28;19929;-60
2022/10/10 12:32:53;;;;;;;;;;;;;;;;;;4988316;28;19918;-60
2022/10/10 12:35:30;;;;;;;;;;;;;;;;;;4988704;28;19918;-61
2022/10/10 12:38:04;;;;;;;;;;;;;;;;;;4975562;28;19992;-61
2022/10/10 12:40:33;;;;;;;;;;;;;;;;;;4975428;28;20269;-61
2022/10/10 12:43:00;;;;;;;;;;;;;;;;;;4972373;28;20432;-60
2022/10/10 12:45:29;;;;;;;;;;;;;;;;;;4979089;28;20347;-61
2022/10/10 12:47:54;;;;;;;;;;;;;;;;;;4972271;28;19926;-62
2022/10/10 12:50:21;;;;;;;;;;;;;;;;;;4979804;28;20388;-61
2022/10/10 12:52:48;;;;;;;;;;;;;;;;;;4983363;28;19978;-60
2022/10/10 12:55:16;;;;;;;;;;;;;;;;;;4986346;28;20362;-58
2022/10/10 12:57:42;;;;;;;;;;;;;;;;;;4989510;28;19952;-59
2022/10/10 13:00:20;;;;;;;;;;;;;;;;;;4977609;28;19933;-59
2022/10/10 13:02:47;;;;;;;;;;;;;;;;;;4986051;28;19930;-59
2022/10/10 13:05:14;;;;;;;;;;;;;;;;;;4973823;28;19957;-59
2022/10/10 13:07:40;;;;;;;;;;;;;;;;;;4976187;28;19991;-61
2022/10/10 13:10:07;;;;;;;;;;;;;;;;;;4986791;28;20001;-59
2022/10/10 13:12:33;;;;;;;;;;;;;;;;;;4985103;28;19925;-59
2022/10/10 13:14:58;;;;;;;;;;;;;;;;;;4962684;28;19918;-59
2022/10/10 13:17:26;;;;;;;;;;;;;;;;;;4959905;28;20375;-59
2022/10/10 13:19:52;;;;;;;;;;;;;;;;;;4962679;28;20361;-59
2022/10/10 13:22:18;;;;;;;;;;;;;;;;;;4957043;28;20395;-59
2022/10/10 13:24:44;;;;;;;;;;;;;;;;;;4973778;28;19923;-55
2022/10/10 13:27:14;;;;;;;;;;;;;;;;;;4967131;28;20329;-55
2022/10/10 13:29:40;;;;;;;;;;;;;;;;;;4968888;28;20044;-55
2022/10/10 13:32:07;;;;;;;;;;;;;;;;;;4960489;28;20017;-56
2022/10/10 13:34:36;;;;;;;;;;;;;;;;;;4971313;28;19988;-56
2022/10/10 13:37:02;;;;;;;;;;;;;;;;;;4964764;28;19918;-58
2022/10/10 13:39:28;;;;;;;;;;;;;;;;;;4959162;28;19933;-56
2022/10/10 13:41:54;;;;;;;;;;;;;;;;;;4961411;28;19949;-56
2022/10/10 13:44:22;;;;;;;;;;;;;;;;;;4973040;28;20388;-55
2022/10/10 13:46:47;;;;;;;;;;;;;;;;;;4958218;28;20371;-55
2022/10/10 13:49:20;;;;;;;;;;;;;;;;;;4958905;28;19972;-56
2022/10/10 13:51:46;;;;;;;;;;;;;;;;;;4964637;28;19925;-55
2022/10/10 13:54:34;;;;;;;;;;;;;;;;;;4979277;28;19922;-55
2022/10/10 13:57:00;;;;;;;;;;;;;;;;;;4966250;28;19922;-56
2022/10/10 13:59:26;;;;;;;;;;;;;;;;;;4967834;28;20412;-55
2022/10/10 14:01:58;;;;;;;;;;;;;;;;;;4958627;28;20068;-56
2022/10/10 14:04:35;;;;;;;;;;;;;;;;;;4962576;28;19965;-55
2022/10/10 14:07:00;;;;;;;;;;;;;;;;;;4965660;28;19922;-55
2022/10/10 14:09:26;;;;;;;;;;;;;;;;;;4973158;28;19964;-56
2022/10/10 14:11:53;;;;;;;;;;;;;;;;;;4972644;28;19950;-59
2022/10/10 14:14:23;;;;;;;;;;;;;;;;;;4963554;28;19918;-59
2022/10/10 14:16:58;;;;;;;;;;;;;;;;;;4955567;28;19957;-59
2022/10/10 14:19:24;;;;;;;;;;;;;;;;;;4962722;28;19972;-58
2022/10/10 14:21:49;;;;;;;;;;;;;;;;;;4970586;28;19944;-58
2022/10/10 14:24:14;;;;;;;;;;;;;;;;;;4964143;28;20468;-59
2022/10/10 14:26:39;;;;;;;;;;;;;;;;;;4956380;28;19925;-59
2022/10/10 14:29:09;;;;;;;;;;;;;;;;;;4995946;28;20422;-59
2022/10/10 14:31:34;;;;;;;;;;;;;;;;;;4979289;28;19918;-59
2022/10/10 14:34:00;;;;;;;;;;;;;;;;;;4957134;28;19918;-59
2022/10/10 14:36:25;;;;;;;;;;;;;;;;;;4958800;28;20044;-59
2022/10/10 14:38:50;;;;;;;;;;;;;;;;;;4962092;28;20067;-59
2022/10/10 14:41:15;;;;;;;;;;;;;;;;;;4970049;28;19918;-59
2022/10/10 14:43:41;;;;;;;;;;;;;;;;;;4956763;28;19923;-59
2022/10/10 14:46:11;;;;;;;;;;;;;;;;;;4965960;28;19918;-58
2022/10/10 14:48:36;;;;;;;;;;;;;;;;;;4965895;28;20017;-59
2022/10/10 14:51:01;;;;;;;;;;;;;;;;;;4975350;28;20009;-59
2022/10/10 14:53:27;;;;;;;;;;;;;;;;;;4977147;28;19916;-59
2022/10/10 14:55:52;;;;;;;;;;;;;;;;;;4957673;28;20139;-58
2022/10/10 14:58:19;;;;;;;;;;;;;;;;;;4972135;28;20376;-59
2022/10/10 15:00:44;;;;;;;;;;;;;;;;;;4960012;28;20330;-58
2022/10/10 15:03:10;;;;;;;;;;;;;;;;;;4981587;28;20011;-58
2022/10/10 15:05:35;;;;;;;;;;;;;;;;;;4973664;28;20384;-58
2022/10/10 15:08:00;;;;;;;;;;;;;;;;;;4979971;28;20384;-58
2022/10/10 15:10:26;;;;;;;;;;;;;;;;;;4970703;28;19927;-58
2022/10/10 15:12:51;;;;;;;;;;;;;;;;;;4957871;28;19968;-58
2022/10/10 15:15:16;;;;;;;;;;;;;;;;;;4958228;28;19925;-58
2022/10/10 15:17:42;;;;;;;;;;;;;;;;;;4960601;28;19961;-58
2022/10/10 15:20:08;;;;;;;;;;;;;;;;;;4962385;28;20415;-58
2022/10/10 15:22:34;;;;;;;;;;;;;;;;;;4970542;28;19926;-58
2022/10/10 15:24:59;;;;;;;;;;;;;;;;;;4960581;28;19926;-58
2022/10/10 15:27:26;;;;;;;;;;;;;;;;;;4966263;28;19918;-58
2022/10/10 15:29:52;;;;;;;;;;;;;;;;;;4959875;28;19984;-57
2022/10/10 15:32:17;;;;;;;;;;;;;;;;;;4958897;28;20411;-58
2022/10/10 15:34:42;;;;;;;;;;;;;;;;;;4955691;28;19918;-58
2022/10/10 15:37:09;;;;;;;;;;;;;;;;;;4963791;28;20019;-59
2022/10/10 15:39:35;;;;;;;;;;;;;;;;;;4964096;28;20017;-58
2022/10/10 15:42:00;;;;;;;;;;;;;;;;;;4958230;28;20013;-59
2022/10/10 15:44:26;;;;;;;;;;;;;;;;;;4963575;28;19920;-59
2022/10/10 15:46:52;;;;;;;;;;;;;;;;;;4965137;28;19922;-57
2022/10/10 15:49:17;;;;;;;;;;;;;;;;;;4971035;28;20260;-58
2022/10/10 15:51:44;;;;;;;;;;;;;;;;;;4951574;28;19919;-57
2022/10/10 15:54:09;;;;;;;;;;;;;;;;;;4959089;28;19971;-58
2022/10/10 15:56:35;;;;;;;;;;;;;;;;;;4960752;28;20112;-58
2022/10/10 15:59:01;;;;;;;;;;;;;;;;;;4960903;28;20028;-59
2022/10/10 16:01:26;;;;;;;;;;;;;;;;;;4957074;28;19925;-59
2022/10/10 16:03:52;;;;;;;;;;;;;;;;;;4969981;28;19979;-59
2022/10/10 16:06:18;;;;;;;;;;;;;;;;;;4962955;28;20411;-59
2022/10/10 16:08:44;;;;;;;;;;;;;;;;;;4965405;28;19965;-60
2022/10/10 16:11:11;;;;;;;;;;;;;;;;;;4954815;28;20330;-58
2022/10/10 16:13:38;;;;;;;;;;;;;;;;;;4962682;28;19960;-58
2022/10/10 16:16:04;;;;;;;;;;;;;;;;;;4958853;28;20330;-59
2022/10/10 16:18:30;;;;;;;;;;;;;;;;;;4954401;28;19927;-59
2022/10/10 16:20:56;;;;;;;;;;;;;;;;;;4959616;28;19971;-59
2022/10/10 16:23:21;;;;;;;;;;;;;;;;;;4957332;28;20020;-59
2022/10/10 16:25:46;;;;;;;;;;;;;;;;;;4963241;28;19954;-59
2022/10/10 16:28:12;;;;;;;;;;;;;;;;;;4965328;28;19971;-59
2022/10/10 16:30:37;;;;;;;;;;;;;;;;;;4968084;28;20338;-59
2022/10/10 16:33:02;;;;;;;;;;;;;;;;;;4959660;28;19928;-59
2022/10/10 16:35:28;;;;;;;;;;;;;;;;;;4959742;28;19940;-58
2022/10/10 16:37:53;;;;;;;;;;;;;;;;;;4962282;28;19926;-59
2022/10/10 16:40:18;;;;;;;;;;;;;;;;;;4960255;28;20311;-58
2022/10/10 16:42:44;;;;;;;;;;;;;;;;;;4961088;28;20430;-58
2022/10/10 16:45:09;;;;;;;;;;;;;;;;;;4971258;28;19926;-58
2022/10/10 16:47:35;;;;;;;;;;;;;;;;;;4967207;28;20396;-58
2022/10/10 16:50:00;;;;;;;;;;;;;;;;;;4960385;28;19926;-58